^^
Marion, Virginia Banner
 

Adwolf, VA. Station Historical Data
[ Providing Data Since 6/07/2007 ]
Station Historical Data
Daily Summary for August 13, 2017 Units:  English    Metric   Both
« Previous Day
Next Day »
Daily Weekly Monthly Yearly Custom
  High: Low: Average:
Temperature: 88.2 °F 68.2 °F 75.5 °F
Dew Point: 70.7 °F 66.4 °F 67.9 °F
Humidity: 94% 52% 79%
Wind Speed: 9.2mph 0.0mph 1.9mph
Wind Gust: 9.2mph - -
Wind- - SE
Pressure: 30.12 in 30.03 in -
Precipitation: 0.00 in    
Historical Graphs
 
 
Tabular Data for August 13, 2017
Time Temperature Dew Point Pressure Wind Wind Speed Wind Gust Humidity Rainfall Rate (Hourly) solar Conditions
00:03 70.6 °F 68.1 °F 30.06 in SSW 1.2 mph 1.2 mph 92% 0.00 in WeatherDisplay:10.37 W/m2 RA
00:08 70.5 °F 68.0 °F 30.06 in Calm     92% 0.00 in WeatherDisplay:10.37 W/m2 RA
00:13 70.5 °F 68.0 °F 30.06 in Calm   0.6 mph 92% 0.00 in WeatherDisplay:10.37 W/m2 OVC
00:18 70.4 °F 67.9 °F 30.07 in SSW 1.0 mph 1.0 mph 92% 0.00 in WeatherDisplay:10.37 W/m2 OVC
00:23 70.3 °F 67.8 °F 30.07 in SSW 1.2 mph   92% 0.00 in WeatherDisplay:10.37 W/m2 OVC
00:28 70.2 °F 67.7 °F 30.06 in Calm     92% 0.00 in WeatherDisplay:10.37 W/m2 OVC
00:33 70.1 °F 67.6 °F 30.06 in Calm     92% 0.00 in WeatherDisplay:10.37 W/m2 OVC
00:38 70.0 °F 67.5 °F 30.07 in Calm     92% 0.00 in WeatherDisplay:10.37 W/m2 OVC
00:43 69.9 °F 67.4 °F 30.07 in Calm     92% 0.00 in WeatherDisplay:10.37 W/m2 BKN
00:48 69.8 °F 67.3 °F 30.06 in SSW 1.2 mph   92% 0.00 in WeatherDisplay:10.37 W/m2 BKN
00:53 69.7 °F 67.2 °F 30.07 in SSW 1.2 mph 1.2 mph 92% 0.00 in WeatherDisplay:10.37 W/m2 BKN
00:58 69.6 °F 67.1 °F 30.07 in Calm     92% 0.00 in WeatherDisplay:10.37 W/m2 BKN
01:03 69.6 °F 67.1 °F 30.06 in Calm     92% 0.00 in WeatherDisplay:10.37 W/m2 OVC
01:08 69.5 °F 67.0 °F 30.06 in Calm     92% 0.00 in WeatherDisplay:10.37 W/m2 OVC
01:13 69.4 °F 66.9 °F 30.06 in SSW 1.2 mph 1.2 mph 92% 0.00 in WeatherDisplay:10.37 W/m2 OVC
01:18 69.3 °F 66.8 °F 30.06 in SSW 1.2 mph   92% 0.00 in WeatherDisplay:10.37 W/m2 OVC
01:23 69.1 °F 66.6 °F 30.06 in Calm     92% 0.00 in WeatherDisplay:10.37 W/m2 BKN
01:28 69.0 °F 66.5 °F 30.06 in Calm     92% 0.00 in WeatherDisplay:10.37 W/m2 BKN
01:33 68.9 °F 66.8 °F 30.06 in Calm     93% 0.00 in WeatherDisplay:10.37 W/m2 BKN
01:38 68.8 °F 66.7 °F 30.06 in Calm     93% 0.00 in WeatherDisplay:10.37 W/m2 BKN
01:43 68.8 °F 66.7 °F 30.06 in Calm     93% 0.00 in WeatherDisplay:10.37 W/m2 SCT
01:48 68.7 °F 66.6 °F 30.06 in Calm     93% 0.00 in WeatherDisplay:10.37 W/m2 SCT
01:53 68.7 °F 66.6 °F 30.06 in SSW 2.3 mph 2.3 mph 93% 0.00 in WeatherDisplay:10.37 W/m2 SCT
01:58 68.7 °F 66.6 °F 30.06 in Calm     93% 0.00 in WeatherDisplay:10.37 W/m2 SCT
01:59 68.7 °F 66.6 °F 30.06 in Calm     93% 0.00 in WeatherDisplay:10.37 W/m2 SCT
02:03 68.7 °F 66.6 °F 30.05 in Calm     93% 0.00 in WeatherDisplay:10.37 W/m2 OVC
02:09 68.6 °F 66.5 °F 30.06 in Calm     93% 0.00 in WeatherDisplay:10.37 W/m2 OVC
02:14 68.7 °F 66.6 °F 30.06 in Calm     93% 0.00 in WeatherDisplay:10.37 W/m2 OVC
02:19 68.7 °F 66.6 °F 30.06 in Calm     93% 0.00 in WeatherDisplay:10.37 W/m2 OVC
02:23 68.8 °F 66.7 °F 30.06 in Calm     93% 0.00 in WeatherDisplay:10.37 W/m2 OVC
02:29 68.8 °F 66.7 °F 30.06 in Calm     93% 0.00 in WeatherDisplay:10.37 W/m2 OVC
02:33 68.8 °F 66.7 °F 30.06 in Calm     93% 0.00 in WeatherDisplay:10.37 W/m2 OVC
02:39 68.9 °F 66.8 °F 30.06 in Calm     93% 0.00 in WeatherDisplay:10.37 W/m2 OVC
02:43 68.9 °F 66.8 °F 30.06 in Calm     93% 0.00 in WeatherDisplay:10.37 W/m2 OVC
02:49 68.9 °F 66.8 °F 30.06 in SSW 1.2 mph   93% 0.00 in WeatherDisplay:10.37 W/m2 OVC
02:54 68.9 °F 67.1 °F 30.06 in Calm     94% 0.00 in WeatherDisplay:10.37 W/m2 OVC
02:58 68.9 °F 67.1 °F 30.06 in Calm     94% 0.00 in WeatherDisplay:10.37 W/m2 OVC
03:03 69.0 °F 67.2 °F 30.06 in Calm     94% 0.00 in WeatherDisplay:10.37 W/m2 OVC
03:09 68.9 °F 67.1 °F 30.06 in Calm     94% 0.00 in WeatherDisplay:10.37 W/m2 OVC
03:14 68.9 °F 67.1 °F 30.06 in SSW 1.2 mph 1.2 mph 94% 0.00 in WeatherDisplay:10.37 W/m2 OVC
03:18 68.9 °F 67.1 °F 30.06 in SSW 1.2 mph 1.2 mph 94% 0.00 in WeatherDisplay:10.37 W/m2 OVC
03:23 68.9 °F 67.1 °F 30.06 in SSW 1.0 mph 1.0 mph 94% 0.00 in WeatherDisplay:10.37 W/m2 OVC
03:29 68.8 °F 66.7 °F 30.06 in Calm     93% 0.00 in WeatherDisplay:10.37 W/m2 OVC
03:33 68.8 °F 67.0 °F 30.06 in Calm     94% 0.00 in WeatherDisplay:10.37 W/m2 OVC
03:39 68.8 °F 67.0 °F 30.06 in Calm     94% 0.00 in WeatherDisplay:10.37 W/m2 OVC
03:43 68.8 °F 67.0 °F 30.06 in Calm     94% 0.00 in WeatherDisplay:10.37 W/m2 OVC
03:49 68.8 °F 67.0 °F 30.06 in Calm     94% 0.00 in WeatherDisplay:10.37 W/m2 OVC
03:54 68.8 °F 67.0 °F 30.06 in Calm     94% 0.00 in WeatherDisplay:10.37 W/m2 OVC
03:59 68.8 °F 67.0 °F 30.06 in Calm     94% 0.00 in WeatherDisplay:10.37 W/m2 OVC
04:04 68.8 °F 67.0 °F 30.06 in Calm     94% 0.00 in WeatherDisplay:10.37 W/m2 OVC
04:09 68.8 °F 67.0 °F 30.06 in SSW 2.0 mph 2.0 mph 94% 0.00 in WeatherDisplay:10.37 W/m2 OVC
04:14 68.8 °F 67.0 °F 30.06 in SSW 2.3 mph 2.3 mph 94% 0.00 in WeatherDisplay:10.37 W/m2 OVC
04:19 68.8 °F 67.0 °F 30.06 in SSW 1.2 mph   94% 0.00 in WeatherDisplay:10.37 W/m2 OVC
04:24 68.7 °F 66.9 °F 30.06 in SSW 1.2 mph 1.2 mph 94% 0.00 in WeatherDisplay:10.37 W/m2 OVC
04:29 68.8 °F 67.0 °F 30.06 in Calm     94% 0.00 in WeatherDisplay:10.37 W/m2 OVC
04:34 68.8 °F 67.0 °F 30.06 in SSW 2.3 mph 2.3 mph 94% 0.00 in WeatherDisplay:10.37 W/m2 OVC
04:39 68.8 °F 67.0 °F 30.06 in Calm     94% 0.00 in WeatherDisplay:10.37 W/m2 OVC
04:44 68.8 °F 67.0 °F 30.06 in SSW 1.2 mph 1.2 mph 94% 0.00 in WeatherDisplay:10.37 W/m2 OVC
04:49 68.8 °F 67.0 °F 30.07 in Calm     94% 0.00 in WeatherDisplay:10.37 W/m2 OVC
04:54 68.7 °F 66.9 °F 30.06 in Calm     94% 0.00 in WeatherDisplay:10.37 W/m2 OVC
04:59 68.7 °F 66.9 °F 30.06 in Calm     94% 0.00 in WeatherDisplay:10.37 W/m2 OVC
05:04 68.7 °F 66.9 °F 30.06 in Calm     94% 0.00 in WeatherDisplay:10.37 W/m2 OVC
05:09 68.7 °F 66.9 °F 30.06 in Calm     94% 0.00 in WeatherDisplay:10.37 W/m2 OVC
05:14 68.7 °F 66.9 °F 30.06 in Calm     94% 0.00 in WeatherDisplay:10.37 W/m2 OVC
05:19 68.7 °F 66.9 °F 30.06 in Calm     94% 0.00 in WeatherDisplay:10.37 W/m2 OVC
05:24 68.7 °F 66.9 °F 30.05 in Calm     94% 0.00 in WeatherDisplay:10.37 W/m2 OVC
05:29 68.7 °F 66.9 °F 30.06 in Calm     94% 0.00 in WeatherDisplay:10.37 W/m2 OVC
05:34 68.6 °F 66.8 °F 30.06 in Calm     94% 0.00 in WeatherDisplay:10.37 W/m2 OVC
05:39 68.6 °F 66.8 °F 30.06 in Calm     94% 0.00 in WeatherDisplay:10.37 W/m2 OVC
05:44 68.6 °F 66.8 °F 30.05 in Calm     94% 0.00 in WeatherDisplay:10.37 W/m2 OVC
05:49 68.6 °F 66.8 °F 30.05 in Calm     94% 0.00 in WeatherDisplay:10.37 W/m2 OVC
05:54 68.6 °F 66.8 °F 30.05 in Calm     94% 0.00 in WeatherDisplay:10.37 W/m2 OVC
05:59 68.6 °F 66.8 °F 30.05 in Calm     94% 0.00 in WeatherDisplay:10.37 W/m2 OVC
06:04 68.6 °F 66.8 °F 30.06 in Calm     94% 0.00 in WeatherDisplay:10.37 W/m2 OVC
06:09 68.7 °F 66.9 °F 30.06 in Calm     94% 0.00 in WeatherDisplay:10.37 W/m2 OVC
06:14 68.6 °F 66.8 °F 30.07 in Calm     94% 0.00 in WeatherDisplay:10.37 W/m2 OVC
06:19 68.5 °F 66.7 °F 30.07 in Calm     94% 0.00 in WeatherDisplay:10.37 W/m2 OVC
06:24 68.5 °F 66.7 °F 30.07 in Calm     94% 0.00 in WeatherDisplay:10.37 W/m2 OVC
06:29 68.5 °F 66.7 °F 30.07 in Calm     94% 0.00 in WeatherDisplay:10.37 W/m2 OVC
06:34 68.5 °F 66.7 °F 30.08 in Calm     94% 0.00 in WeatherDisplay:10.37 W/m2 OVC
06:39 68.4 °F 66.6 °F 30.07 in Calm     94% 0.00 in WeatherDisplay:10.37 W/m2 OVC
06:44 68.3 °F 66.5 °F 30.07 in Calm     94% 0.00 in WeatherDisplay:10.37 W/m2 OVC
06:49 68.3 °F 66.5 °F 30.08 in Calm     94% 0.00 in WeatherDisplay:10.37 W/m2 OVC
06:54 68.2 °F 66.4 °F 30.08 in Calm     94% 0.00 in WeatherDisplay:10.37 W/m2 OVC
06:59 68.2 °F 66.4 °F 30.08 in Calm     94% 0.00 in WeatherDisplay:10.37 W/m2 OVC
07:04 68.2 °F 66.4 °F 30.08 in Calm     94% 0.00 in WeatherDisplay:10.37 W/m2 OVC
07:09 68.2 °F 66.4 °F 30.08 in Calm     94% 0.00 in WeatherDisplay:10.37 W/m2 OVC
07:14 68.3 °F 66.5 °F 30.09 in Calm     94% 0.00 in WeatherDisplay:10.37 W/m2 OVC
07:19 68.3 °F 66.5 °F 30.08 in Calm     94% 0.00 in WeatherDisplay:10.37 W/m2 OVC
07:24 68.4 °F 66.6 °F 30.08 in Calm     94% 0.00 in WeatherDisplay:10.37 W/m2 OVC
07:29 68.5 °F 66.7 °F 30.09 in Calm     94% 0.00 in WeatherDisplay:10.37 W/m2 OVC
07:34 68.5 °F 66.7 °F 30.09 in Calm     94% 0.00 in WeatherDisplay:10.37 W/m2 OVC
07:39 68.5 °F 66.7 °F 30.09 in Calm     94% 0.00 in WeatherDisplay:10.37 W/m2 OVC
07:44 68.5 °F 66.7 °F 30.09 in Calm     94% 0.00 in WeatherDisplay:10.37 W/m2 OVC
07:49 68.6 °F 66.8 °F 30.09 in Calm     94% 0.00 in WeatherDisplay:10.37 W/m2 OVC
07:54 68.7 °F 66.9 °F 30.09 in Calm     94% 0.00 in WeatherDisplay:10.37 W/m2 OVC
07:59 68.9 °F 67.1 °F 30.09 in Calm     94% 0.00 in WeatherDisplay:10.37 W/m2 OVC
08:04 69.0 °F 67.2 °F 30.09 in Calm     94% 0.00 in WeatherDisplay:10.37 W/m2 OVC
08:09 69.2 °F 67.4 °F 30.09 in Calm     94% 0.00 in WeatherDisplay:10.37 W/m2 OVC
08:10 69.3 °F 67.5 °F 30.09 in Calm     94% 0.00 in WeatherDisplay:10.37 W/m2 OVC
08:15 69.4 °F 67.6 °F 30.09 in Calm     94% 0.00 in WeatherDisplay:10.37 W/m2 OVC
08:20 69.4 °F 67.6 °F 30.09 in Calm     94% 0.00 in WeatherDisplay:10.37 W/m2 OVC
08:25 69.4 °F 67.6 °F 30.09 in SSW 3.5 mph 3.5 mph 94% 0.00 in WeatherDisplay:10.37 W/m2 OVC
08:30 69.6 °F 67.4 °F 30.09 in SSW 2.0 mph 2.0 mph 93% 0.00 in WeatherDisplay:10.37 W/m2 OVC
08:35 69.7 °F 67.5 °F 30.09 in SSW 2.3 mph 2.3 mph 93% 0.00 in WeatherDisplay:10.37 W/m2 OVC
08:40 70.0 °F 67.5 °F 30.09 in SSW 2.3 mph 2.3 mph 92% 0.00 in WeatherDisplay:10.37 W/m2 OVC
08:45 70.2 °F 67.4 °F 30.09 in SSW 1.2 mph 1.2 mph 91% 0.00 in WeatherDisplay:10.37 W/m2 BKN
08:50 70.4 °F 67.6 °F 30.10 in SSW 3.5 mph 3.5 mph 91% 0.00 in WeatherDisplay:10.37 W/m2 BKN
08:55 70.7 °F 67.9 °F 30.10 in SSW 2.3 mph 2.3 mph 91% 0.00 in WeatherDisplay:10.37 W/m2 BKN
09:00 70.9 °F 67.8 °F 30.10 in SSW 1.2 mph 1.2 mph 90% 0.00 in WeatherDisplay:10.37 W/m2 BKN
09:05 71.2 °F 68.1 °F 30.10 in NE 3.5 mph 3.5 mph 90% 0.00 in WeatherDisplay:10.37 W/m2 BKN
09:10 71.5 °F 68.0 °F 30.10 in NE 2.3 mph 2.3 mph 89% 0.00 in WeatherDisplay:10.37 W/m2 BKN
09:15 71.9 °F 68.1 °F 30.10 in ENE 3.5 mph 3.5 mph 88% 0.00 in WeatherDisplay:10.37 W/m2 BKN
09:20 72.2 °F 68.1 °F 30.10 in NE 3.5 mph 3.5 mph 87% 0.00 in WeatherDisplay:10.37 W/m2 BKN
09:25 72.7 °F 68.6 °F 30.10 in NE 3.5 mph 3.5 mph 87% 0.00 in WeatherDisplay:10.37 W/m2 SCT
09:30 73.1 °F 68.6 °F 30.10 in North 4.6 mph 4.6 mph 86% 0.00 in WeatherDisplay:10.37 W/m2 SCT
09:35 73.5 °F 68.7 °F 30.10 in North 2.3 mph 2.3 mph 85% 0.00 in WeatherDisplay:10.37 W/m2 SCT
09:40 73.9 °F 68.4 °F 30.10 in NNE 5.0 mph 5.0 mph 83% 0.00 in WeatherDisplay:10.37 W/m2 SCT
09:45 74.2 °F 68.7 °F 30.10 in ENE 3.5 mph 3.5 mph 83% 0.00 in WeatherDisplay:10.37 W/m2 BKN
09:50 74.6 °F 69.1 °F 30.10 in ENE 3.5 mph 3.5 mph 83% 0.00 in WeatherDisplay:10.37 W/m2 BKN
09:55 74.7 °F 68.4 °F 30.10 in NE 3.5 mph 3.5 mph 81% 0.00 in WeatherDisplay:10.37 W/m2 BKN
10:00 74.7 °F 68.8 °F 30.10 in NNE 4.6 mph 4.6 mph 82% 0.00 in WeatherDisplay:10.37 W/m2 BKN
10:05 75.2 °F 69.3 °F 30.11 in NNE 3.5 mph 3.5 mph 82% 0.00 in WeatherDisplay:10.37 W/m2 OVC
10:10 75.8 °F 69.1 °F 30.11 in NNE 2.3 mph 2.3 mph 80% 0.00 in WeatherDisplay:10.37 W/m2 OVC
10:15 76.8 °F 69.4 °F 30.11 in NNE 3.5 mph 3.5 mph 78% 0.00 in WeatherDisplay:10.37 W/m2 OVC
10:20 77.8 °F 70.0 °F 30.11 in NNE 2.3 mph 2.3 mph 77% 0.00 in WeatherDisplay:10.37 W/m2 OVC
10:25 78.4 °F 70.2 °F 30.11 in NNE 2.3 mph 2.3 mph 76% 0.00 in WeatherDisplay:10.37 W/m2 BKN
10:30 78.0 °F 69.8 °F 30.11 in NNW 3.5 mph 3.5 mph 76% 0.00 in WeatherDisplay:10.37 W/m2 BKN
10:32 77.6 °F 69.4 °F 30.11 in West 3.5 mph 3.5 mph 76% 0.00 in WeatherDisplay:10.37 W/m2 BKN
10:37 76.8 °F 69.4 °F 30.11 in West 2.3 mph 2.3 mph 78% 0.00 in WeatherDisplay:10.37 W/m2 BKN
10:42 76.7 °F 68.9 °F 30.11 in West 3.5 mph 3.5 mph 77% 0.00 in WeatherDisplay:10.37 W/m2 OVC
10:47 76.5 °F 68.7 °F 30.11 in West 3.5 mph 3.5 mph 77% 0.00 in WeatherDisplay:10.37 W/m2 OVC
10:52 76.8 °F 69.0 °F 30.11 in West 1.2 mph 1.2 mph 77% 0.00 in WeatherDisplay:10.37 W/m2 OVC
10:57 77.1 °F 68.5 °F 30.11 in West 3.5 mph 3.5 mph 75% 0.00 in WeatherDisplay:10.37 W/m2 OVC
11:02 77.4 °F 68.8 °F 30.12 in North 3.5 mph 3.5 mph 75% 0.00 in WeatherDisplay:10.37 W/m2 OVC
11:07 77.4 °F 68.4 °F 30.12 in West 3.5 mph 3.5 mph 74% 0.00 in WeatherDisplay:10.37 W/m2 OVC
11:12 77.3 °F 68.7 °F 30.12 in West 3.5 mph 3.5 mph 75% 0.00 in WeatherDisplay:10.37 W/m2 OVC
11:14 77.2 °F 68.6 °F 30.12 in West 3.5 mph 3.5 mph 75% 0.00 in WeatherDisplay:10.37 W/m2 OVC
11:19 77.3 °F 69.1 °F 30.12 in West 3.5 mph 3.5 mph 76% 0.00 in WeatherDisplay:10.37 W/m2 OVC
11:24 77.6 °F 70.2 °F 30.12 in NNW 2.3 mph 2.3 mph 78% 0.00 in WeatherDisplay:10.37 W/m2 SCT
11:29 78.0 °F 68.6 °F 30.12 in North 3.5 mph 3.5 mph 73% 0.00 in WeatherDisplay:10.37 W/m2 SCT
11:34 78.1 °F 69.1 °F 30.11 in NNE 4.6 mph 4.6 mph 74% 0.00 in WeatherDisplay:10.37 W/m2 SCT
11:39 78.4 °F 69.0 °F 30.11 in WNW 4.0 mph 4.0 mph 73% 0.00 in WeatherDisplay:10.37 W/m2 SCT
11:44 78.6 °F 68.8 °F 30.11 in NNE 8.1 mph 8.1 mph 72% 0.00 in WeatherDisplay:10.37 W/m2 BKN
11:49 78.8 °F 69.0 °F 30.11 in North 4.6 mph 4.6 mph 72% 0.00 in WeatherDisplay:10.37 W/m2 BKN
11:54 78.9 °F 69.1 °F 30.11 in NNE 5.0 mph 5.0 mph 72% 0.00 in WeatherDisplay:10.37 W/m2 BKN
11:59 78.9 °F 68.2 °F 30.10 in NNE 4.6 mph 4.6 mph 70% 0.00 in WeatherDisplay:10.37 W/m2 BKN
12:04 79.2 °F 68.9 °F 30.10 in NNE 4.6 mph 4.6 mph 71% 0.00 in WeatherDisplay:10.37 W/m2 BKN
12:09 79.3 °F 68.2 °F 30.10 in West 4.6 mph 4.6 mph 69% 0.00 in WeatherDisplay:10.37 W/m2 BKN
12:14 79.9 °F 68.8 °F 30.10 in ESE 8.1 mph 8.1 mph 69% 0.00 in WeatherDisplay:10.37 W/m2 BKN
12:19 81.1 °F 69.5 °F 30.10 in East 3.5 mph 3.5 mph 68% 0.00 in WeatherDisplay:10.37 W/m2 BKN
12:24 81.6 °F 68.2 °F 30.10 in NNE 6.9 mph 6.9 mph 64% 0.00 in WeatherDisplay:10.37 W/m2 BKN
12:29 81.6 °F 68.7 °F 30.10 in North 3.5 mph 3.5 mph 65% 0.00 in WeatherDisplay:10.37 W/m2 BKN
12:34 81.8 °F 68.8 °F 30.10 in NNE 5.0 mph 5.0 mph 65% 0.00 in WeatherDisplay:10.37 W/m2 BKN
12:39 81.1 °F 67.7 °F 30.10 in North 9.2 mph 9.2 mph 64% 0.00 in WeatherDisplay:10.37 W/m2 BKN
12:44 81.0 °F 69.4 °F 30.10 in North 5.0 mph 5.0 mph 68% 0.00 in WeatherDisplay:10.37 W/m2 SCT
12:49 81.1 °F 68.2 °F 30.09 in South 3.5 mph 3.5 mph 65% 0.00 in WeatherDisplay:10.37 W/m2 SCT
12:54 81.8 °F 69.3 °F 30.09 in NW 3.0 mph 3.0 mph 66% 0.00 in WeatherDisplay:10.37 W/m2 SCT
12:59 82.1 °F 68.2 °F 30.09 in NNE 4.0 mph 4.0 mph 63% 0.00 in WeatherDisplay:10.37 W/m2 SCT
13:04 81.9 °F 68.5 °F 30.09 in NNE 3.5 mph 3.5 mph 64% 0.00 in WeatherDisplay:10.37 W/m2 SCT
13:09 81.5 °F 67.6 °F 30.09 in NNE 3.5 mph 3.5 mph 63% 0.00 in WeatherDisplay:10.37 W/m2 SCT
13:14 81.8 °F 67.9 °F 30.09 in NNE 3.5 mph 3.5 mph 63% 0.00 in WeatherDisplay:10.37 W/m2 SCT
13:19 82.4 °F 68.5 °F 30.08 in SW 3.5 mph 3.5 mph 63% 0.00 in WeatherDisplay:10.37 W/m2 SCT
13:24 83.0 °F 68.1 °F 30.08 in South 3.5 mph 3.5 mph 61% 0.00 in WeatherDisplay:10.37 W/m2 SCT
13:29 84.3 °F 70.3 °F 30.08 in West 2.3 mph 2.3 mph 63% 0.00 in WeatherDisplay:10.37 W/m2 SCT
13:34 85.4 °F 69.4 °F 30.08 in NNE 3.5 mph 3.5 mph 59% 0.00 in WeatherDisplay:10.37 W/m2 SCT
13:39 86.0 °F 69.0 °F 30.08 in NNE 3.5 mph 3.5 mph 57% 0.00 in WeatherDisplay:10.37 W/m2 SCT
13:44 86.5 °F 68.4 °F 30.08 in South 3.5 mph 3.5 mph 55% 0.00 in WeatherDisplay:10.37 W/m2 SCT
13:49 87.4 °F 68.7 °F 30.08 in SSE 3.5 mph 3.5 mph 54% 0.00 in WeatherDisplay:10.37 W/m2 SCT
13:54 88.0 °F 68.7 °F 30.08 in SE 3.5 mph 3.5 mph 53% 0.00 in WeatherDisplay:10.37 W/m2 SCT
13:59 88.2 °F 68.3 °F 30.08 in East 3.5 mph 3.5 mph 52% 0.00 in WeatherDisplay:10.37 W/m2 SCT
14:04 87.9 °F 68.0 °F 30.07 in East 3.5 mph 3.5 mph 52% 0.00 in WeatherDisplay:10.37 W/m2 SCT
14:05 87.7 °F 68.4 °F 30.08 in SSW 3.5 mph 3.5 mph 53% 0.00 in WeatherDisplay:10.37 W/m2 SCT
14:10 86.7 °F 68.0 °F 30.07 in North 4.0 mph 4.0 mph 54% 0.00 in WeatherDisplay:10.37 W/m2 SCT
14:15 85.7 °F 67.6 °F 30.07 in North 4.6 mph 4.6 mph 55% 0.00 in WeatherDisplay:10.37 W/m2 SCT
14:20 84.7 °F 67.2 °F 30.07 in North 3.5 mph 3.5 mph 56% 0.00 in WeatherDisplay:10.37 W/m2 SCT
14:25 85.0 °F 68.0 °F 30.07 in West 3.5 mph 3.5 mph 57% 0.00 in WeatherDisplay:10.37 W/m2 BKN
14:30 84.9 °F 66.4 °F 30.07 in NNE 3.5 mph 3.5 mph 54% 0.00 in WeatherDisplay:10.37 W/m2 BKN
14:35 84.9 °F 66.9 °F 30.07 in NNE 3.5 mph 3.5 mph 55% 0.00 in WeatherDisplay:10.37 W/m2 BKN
14:40 85.1 °F 68.1 °F 30.07 in NNE 3.5 mph 3.5 mph 57% 0.00 in WeatherDisplay:10.37 W/m2 BKN
14:45 85.0 °F 67.5 °F 30.07 in NNE 3.5 mph 3.5 mph 56% 0.00 in WeatherDisplay:10.37 W/m2 SCT
14:50 84.4 °F 67.5 °F 30.06 in North 3.5 mph 3.5 mph 57% 0.00 in WeatherDisplay:10.37 W/m2 SCT
14:55 84.0 °F 68.1 °F 30.06 in North 3.5 mph 3.5 mph 59% 0.00 in WeatherDisplay:10.37 W/m2 SCT
15:00 84.4 °F 68.0 °F 30.06 in North 4.0 mph 4.0 mph 58% 0.00 in WeatherDisplay:10.37 W/m2 SCT
15:05 84.8 °F 67.8 °F 30.06 in NNE 3.5 mph 3.5 mph 57% 0.00 in WeatherDisplay:10.37 W/m2 BKN
15:10 84.8 °F 68.3 °F 30.06 in NNE 3.5 mph 3.5 mph 58% 0.00 in WeatherDisplay:10.37 W/m2 BKN
15:15 84.5 °F 67.6 °F 30.05 in North 4.6 mph 4.6 mph 57% 0.00 in WeatherDisplay:10.37 W/m2 BKN
15:20 84.3 °F 67.4 °F 30.05 in North 3.5 mph 3.5 mph 57% 0.00 in WeatherDisplay:10.37 W/m2 BKN
15:25 84.8 °F 68.3 °F 30.05 in North 3.5 mph 3.5 mph 58% 0.00 in WeatherDisplay:10.37 W/m2 OVC
15:30 84.2 °F 67.8 °F 30.05 in SSW 8.1 mph 8.1 mph 58% 0.00 in WeatherDisplay:10.37 W/m2 OVC
15:35 84.2 °F 70.7 °F 30.05 in WNW 3.5 mph 3.5 mph 64% 0.00 in WeatherDisplay:10.37 W/m2 OVC
15:40 84.5 °F 67.6 °F 30.05 in NW 3.5 mph 3.5 mph 57% 0.00 in WeatherDisplay:10.37 W/m2 OVC
15:45 84.3 °F 67.9 °F 30.05 in WNW 3.5 mph 3.5 mph 58% 0.00 in WeatherDisplay:10.37 W/m2 SCT
15:50 83.9 °F 67.5 °F 30.05 in NW 2.3 mph 2.3 mph 58% 0.00 in WeatherDisplay:10.37 W/m2 SCT
15:55 83.6 °F 68.2 °F 30.05 in NW 2.3 mph 2.3 mph 60% 0.00 in WeatherDisplay:10.37 W/m2 SCT
16:00 83.5 °F 68.6 °F 30.04 in WNW 3.5 mph 3.5 mph 61% 0.00 in WeatherDisplay:10.37 W/m2 SCT
16:05 83.5 °F 68.6 °F 30.04 in NNW 3.5 mph 3.5 mph 61% 0.00 in WeatherDisplay:10.37 W/m2 SCT
16:10 83.5 °F 67.6 °F 30.04 in North 3.5 mph 3.5 mph 59% 0.00 in WeatherDisplay:10.37 W/m2 SCT
16:15 83.9 °F 68.0 °F 30.04 in NNE 4.6 mph 4.6 mph 59% 0.00 in WeatherDisplay:10.37 W/m2 SCT
16:20 84.3 °F 67.9 °F 30.04 in North 3.5 mph 3.5 mph 58% 0.00 in WeatherDisplay:10.37 W/m2 SCT
16:25 84.4 °F 67.5 °F 30.04 in NNE 3.5 mph 3.5 mph 57% 0.00 in WeatherDisplay:10.37 W/m2 OVC
16:30 84.4 °F 67.0 °F 30.04 in NW 4.6 mph 4.6 mph 56% 0.00 in WeatherDisplay:10.37 W/m2 OVC
16:35 84.6 °F 68.2 °F 30.04 in NNW 3.5 mph 3.5 mph 58% 0.00 in WeatherDisplay:10.37 W/m2 OVC
16:40 84.9 °F 67.4 °F 30.04 in NNW 3.5 mph 3.5 mph 56% 0.00 in WeatherDisplay:10.37 W/m2 OVC
16:45 85.2 °F 67.7 °F 30.04 in NNW 3.5 mph 3.5 mph 56% 0.00 in WeatherDisplay:10.37 W/m2 BKN
16:50 85.6 °F 68.1 °F 30.04 in NNW 3.5 mph 3.5 mph 56% 0.00 in WeatherDisplay:10.37 W/m2 BKN
16:55 85.5 °F 66.9 °F 30.04 in NE 5.0 mph 5.0 mph 54% 0.00 in WeatherDisplay:10.37 W/m2 BKN
17:00 85.1 °F 67.1 °F 30.04 in NNE 4.6 mph 4.6 mph 55% 0.00 in WeatherDisplay:10.37 W/m2 BKN
17:05 85.2 °F 67.7 °F 30.04 in NNE 2.3 mph 2.3 mph 56% 0.00 in WeatherDisplay:10.37 W/m2 BKN
17:10 85.4 °F 67.9 °F 30.04 in North 4.6 mph 4.6 mph 56% 0.00 in WeatherDisplay:10.37 W/m2 BKN
17:15 85.2 °F 68.2 °F 30.04 in NNW 3.5 mph 3.5 mph 57% 0.00 in WeatherDisplay:10.37 W/m2 BKN
17:20 85.4 °F 67.9 °F 30.04 in West 3.5 mph 3.5 mph 56% 0.00 in WeatherDisplay:10.37 W/m2 BKN
17:25 85.4 °F 67.9 °F 30.04 in West 2.3 mph 2.3 mph 56% 0.00 in WeatherDisplay:10.37 W/m2 SCT
17:30 85.5 °F 67.4 °F 30.04 in West 2.3 mph 2.3 mph 55% 0.00 in WeatherDisplay:10.37 W/m2 SCT
17:35 85.4 °F 67.9 °F 30.04 in West 3.5 mph 3.5 mph 56% 0.00 in WeatherDisplay:10.37 W/m2 SCT
17:40 85.6 °F 68.6 °F 30.04 in NNW 3.5 mph 3.5 mph 57% 0.00 in WeatherDisplay:10.37 W/m2 SCT
17:45 85.9 °F 67.8 °F 30.04 in West 3.5 mph 3.5 mph 55% 0.00 in WeatherDisplay:10.37 W/m2 BKN
17:50 85.6 °F 67.0 °F 30.04 in West 3.5 mph 3.5 mph 54% 0.00 in WeatherDisplay:10.37 W/m2 BKN
17:55 85.6 °F 67.5 °F 30.04 in NNW 3.5 mph 3.5 mph 55% 0.00 in WeatherDisplay:10.37 W/m2 BKN
18:00 85.7 °F 68.7 °F 30.04 in NNW 3.5 mph 3.5 mph 57% 0.00 in WeatherDisplay:10.37 W/m2 BKN
18:05 85.1 °F 66.5 °F 30.04 in WSW 4.0 mph 4.0 mph 54% 0.00 in WeatherDisplay:10.37 W/m2 BKN
18:10 84.5 °F 67.6 °F 30.04 in WSW 3.5 mph 3.5 mph 57% 0.00 in WeatherDisplay:10.37 W/m2 BKN
18:15 83.8 °F 67.9 °F 30.03 in WNW 3.5 mph 3.5 mph 59% 0.00 in WeatherDisplay:10.37 W/m2 BKN
18:20 83.5 °F 68.6 °F 30.03 in WNW 3.0 mph 3.0 mph 61% 0.00 in WeatherDisplay:10.37 W/m2 BKN
18:25 83.3 °F 68.4 °F 30.04 in NE 2.3 mph 2.3 mph 61% 0.00 in WeatherDisplay:10.37 W/m2 BKN
18:30 83.1 °F 69.2 °F 30.04 in WNW 1.2 mph   63% 0.00 in WeatherDisplay:10.37 W/m2 BKN
18:35 82.9 °F 69.0 °F 30.04 in WNW 2.3 mph 2.3 mph 63% 0.00 in WeatherDisplay:10.37 W/m2 BKN
18:40 82.7 °F 69.2 °F 30.04 in NNE 2.3 mph 2.3 mph 64% 0.00 in WeatherDisplay:10.37 W/m2 BKN
18:45 82.6 °F 68.2 °F 30.04 in NNE 2.3 mph 2.3 mph 62% 0.00 in WeatherDisplay:10.37 W/m2 SCT
18:50 82.3 °F 67.9 °F 30.04 in NNE 3.5 mph 3.5 mph 62% 0.00 in WeatherDisplay:10.37 W/m2 SCT
18:55 82.1 °F 69.1 °F 30.04 in NNE 2.3 mph 2.3 mph 65% 0.00 in WeatherDisplay:10.37 W/m2 SCT
18:56 82.1 °F 68.7 °F 30.04 in NNE 3.5 mph 3.5 mph 64% 0.00 in WeatherDisplay:10.37 W/m2 SCT
19:01 81.9 °F 68.9 °F 30.04 in NNE 3.5 mph 3.5 mph 65% 0.00 in WeatherDisplay:10.37 W/m2 SCT
19:06 81.7 °F 68.7 °F 30.04 in NNE 2.3 mph 2.3 mph 65% 0.00 in WeatherDisplay:10.37 W/m2 BKN
19:11 81.5 °F 69.4 °F 30.04 in NNE 2.3 mph 2.3 mph 67% 0.00 in WeatherDisplay:10.37 W/m2 BKN
19:16 81.2 °F 69.2 °F 30.04 in NNE 2.3 mph 2.3 mph 67% 0.00 in WeatherDisplay:10.37 W/m2 BKN
19:21 80.9 °F 68.9 °F 30.04 in NNE 2.3 mph 2.3 mph 67% 0.00 in WeatherDisplay:10.37 W/m2 BKN
19:26 80.8 °F 69.6 °F 30.04 in NNE 2.0 mph 2.0 mph 69% 0.00 in WeatherDisplay:10.37 W/m2 BKN
19:31 80.6 °F 69.9 °F 30.04 in Calm     70% 0.00 in WeatherDisplay:10.37 W/m2 BKN
19:36 80.4 °F 70.1 °F 30.04 in NNE 1.2 mph 1.2 mph 71% 0.00 in WeatherDisplay:10.37 W/m2 BKN
19:41 80.2 °F 69.9 °F 30.05 in NNE 1.2 mph   71% 0.00 in WeatherDisplay:10.37 W/m2 OVC
19:46 79.9 °F 69.6 °F 30.05 in NNE 1.2 mph 1.2 mph 71% 0.00 in WeatherDisplay:10.37 W/m2 OVC
19:51 79.6 °F 69.3 °F 30.05 in NNE 2.3 mph 2.3 mph 71% 0.00 in WeatherDisplay:10.37 W/m2 OVC
19:56 79.3 °F 69.9 °F 30.05 in Calm     73% 0.00 in WeatherDisplay:10.37 W/m2 OVC
20:01 79.0 °F 70.4 °F 30.05 in Calm     75% 0.00 in WeatherDisplay:10.37 W/m2 OVC
20:06 78.6 °F 70.0 °F 30.05 in NNE 1.2 mph 1.2 mph 75% 0.00 in WeatherDisplay:10.37 W/m2 OVC
20:11 78.4 °F 69.8 °F 30.05 in Calm     75% 0.00 in WeatherDisplay:10.37 W/m2 OVC
20:12 78.4 °F 69.8 °F 30.05 in Calm     75% 0.00 in WeatherDisplay:10.37 W/m2 OVC
20:17 78.1 °F 69.9 °F 30.05 in Calm     76% 0.00 in WeatherDisplay:10.37 W/m2 OVC
20:22 77.8 °F 70.0 °F 30.05 in NNE 1.2 mph 1.2 mph 77% 0.00 in WeatherDisplay:10.37 W/m2 OVC
20:27 77.4 °F 70.3 °F 30.05 in NNE 1.2 mph   79% 0.00 in WeatherDisplay:10.37 W/m2 OVC
20:32 77.0 °F 69.9 °F 30.05 in Calm     79% 0.00 in WeatherDisplay:10.37 W/m2 OVC
20:37 76.7 °F 69.7 °F 30.05 in NNE 1.2 mph 1.2 mph 79% 0.00 in WeatherDisplay:10.37 W/m2 OVC
20:42 76.4 °F 69.4 °F 30.05 in Calm     79% 0.00 in WeatherDisplay:10.37 W/m2 OVC
20:47 76.0 °F 69.0 °F 30.05 in Calm     79% 0.00 in WeatherDisplay:10.37 W/m2 OVC
20:52 75.7 °F 69.1 °F 30.06 in Calm     80% 0.00 in WeatherDisplay:10.37 W/m2 OVC
20:57 75.4 °F 69.1 °F 30.06 in Calm     81% 0.00 in WeatherDisplay:10.37 W/m2 BKN
21:02 75.1 °F 69.2 °F 30.06 in Calm     82% 0.00 in WeatherDisplay:10.37 W/m2 BKN
21:07 74.9 °F 69.0 °F 30.06 in Calm     82% 0.00 in WeatherDisplay:10.37 W/m2 BKN
21:12 74.6 °F 69.1 °F 30.06 in Calm     83% 0.00 in WeatherDisplay:10.37 W/m2 BKN
21:17 74.4 °F 69.2 °F 30.07 in Calm     84% 0.00 in WeatherDisplay:10.37 W/m2 BKN
21:22 74.1 °F 68.9 °F 30.07 in Calm     84% 0.00 in WeatherDisplay:10.37 W/m2 OVC
21:27 73.8 °F 69.0 °F 30.07 in NNE 2.0 mph   85% 0.00 in WeatherDisplay:10.37 W/m2 OVC
21:32 73.5 °F 69.0 °F 30.07 in NNE 2.3 mph 2.3 mph 86% 0.00 in WeatherDisplay:10.37 W/m2 OVC
21:37 73.2 °F 68.7 °F 30.07 in Calm     86% 0.00 in WeatherDisplay:10.37 W/m2 OVC
21:42 72.9 °F 68.4 °F 30.07 in Calm     86% 0.00 in WeatherDisplay:10.37 W/m2 OVC
21:47 72.7 °F 68.2 °F 30.07 in Calm     86% 0.00 in WeatherDisplay:10.37 W/m2 OVC
21:52 72.5 °F 68.4 °F 30.07 in Calm     87% 0.00 in WeatherDisplay:10.37 W/m2 OVC
21:57 72.3 °F 68.2 °F 30.08 in NNE 1.2 mph   87% 0.00 in WeatherDisplay:10.37 W/m2 OVC
22:02 72.2 °F 68.1 °F 30.08 in Calm     87% 0.00 in WeatherDisplay:10.37 W/m2 OVC
22:07 72.1 °F 68.0 °F 30.08 in NNE 2.0 mph   87% 0.00 in WeatherDisplay:10.37 W/m2 OVC
22:12 72.1 °F 68.3 °F 30.08 in NNE 1.2 mph 1.2 mph 88% 0.00 in WeatherDisplay:10.37 W/m2 OVC
22:17 72.1 °F 68.3 °F 30.08 in NNE 2.3 mph 2.3 mph 88% 0.00 in WeatherDisplay:10.37 W/m2 OVC
22:22 72.2 °F 68.4 °F 30.08 in NNE 2.3 mph 2.3 mph 88% 0.00 in WeatherDisplay:10.37 W/m2 BKN
22:27 72.3 °F 68.2 °F 30.09 in NNE 2.3 mph 2.3 mph 87% 0.00 in WeatherDisplay:10.37 W/m2 BKN
22:32 72.3 °F 68.2 °F 30.09 in Calm     87% 0.00 in WeatherDisplay:10.37 W/m2 BKN
22:37 72.3 °F 68.2 °F 30.08 in NNE 1.0 mph 1.0 mph 87% 0.00 in WeatherDisplay:10.37 W/m2 BKN
22:42 72.1 °F 68.3 °F 30.08 in NNE 2.3 mph 2.3 mph 88% 0.00 in WeatherDisplay:10.37 W/m2 OVC
22:47 71.9 °F 68.1 °F 30.08 in NNE 1.2 mph 1.2 mph 88% 0.00 in WeatherDisplay:10.37 W/m2 OVC
22:52 71.7 °F 67.9 °F 30.09 in NNE 1.2 mph 1.2 mph 88% 0.00 in WeatherDisplay:10.37 W/m2 OVC
22:57 71.6 °F 67.8 °F 30.09 in NNE 1.2 mph 1.2 mph 88% 0.00 in WeatherDisplay:10.37 W/m2 OVC
23:02 71.5 °F 67.7 °F 30.08 in Calm     88% 0.00 in WeatherDisplay:10.37 W/m2 OVC
23:07 71.4 °F 67.9 °F 30.09 in Calm     89% 0.00 in WeatherDisplay:10.37 W/m2 OVC
23:12 71.3 °F 67.8 °F 30.09 in Calm     89% 0.00 in WeatherDisplay:10.37 W/m2 OVC
23:17 71.2 °F 67.8 °F 30.09 in NNE 1.2 mph 1.2 mph 89% 0.00 in WeatherDisplay:10.37 W/m2 OVC
23:22 71.0 °F 67.6 °F 30.09 in NNE 1.2 mph 1.2 mph 89% 0.00 in WeatherDisplay:10.37 W/m2 OVC
23:27 70.9 °F 67.5 °F 30.08 in Calm     89% 0.00 in WeatherDisplay:10.37 W/m2 OVC
23:32 70.8 °F 67.4 °F 30.09 in NNE 1.2 mph 1.2 mph 89% 0.00 in WeatherDisplay:10.37 W/m2 OVC
23:37 70.8 °F 67.7 °F 30.08 in Calm     90% 0.00 in WeatherDisplay:10.37 W/m2 OVC
23:42 70.7 °F 67.6 °F 30.09 in Calm     90% 0.00 in WeatherDisplay:10.37 W/m2 BKN
23:47 70.7 °F 67.6 °F 30.09 in Calm     90% 0.00 in WeatherDisplay:10.37 W/m2 BKN
23:52 70.6 °F 67.5 °F 30.08 in Calm     90% 0.00 in WeatherDisplay:10.37 W/m2 BKN
23:57 70.6 °F 67.5 °F 30.08 in Calm     90% 0.00 in WeatherDisplay:10.37 W/m2 BKN
Smyth Weather
Compliments of Weather Underground - 3 mb